Latest Weather Observations for Maningrida Airport

IDD60801

Issued at 8:05 pm CST Thursday 23 October 2014 (issued every 30 minutes, with the page automatically refreshed every 10 minutes)

About weather observations | Map of weather stations | Latest weather observations for NT | Other Formats
Station Details ID: 014405 Name: MANINGRIDA AIRPORT Lat: -12.06 Lon: 134.23 Height: 28.1 m
Data from the previous 72 hours. | See also: Recent months at Maningrida Airport
Date/Time
CST
Temp
°C
App
Temp
°C
Dew
Point
Rel
Hum
%
Delta-T
°C
Wind Press
QNH
hPa
Press
MSL
hPa
Rain
since 9 am
mm
Dir
 
Spd
km/h
Gust
km/h
Spd
kts
Gust
kts
23/08:00pm 27.3 32.4 22.7 76 3.1 ENE 0 0 0 0 1012.3 1012.1 0.0
23/07:30pm 27.5 32.2 22.0 72 3.7 NE 0 2 0 1 1011.9 1011.7 0.0
23/07:00pm 27.5 32.2 22.0 72 3.7 CALM 0 0 0 0 1011.4 1011.2 0.0
23/06:30pm 27.7 32.3 21.7 70 4.0 CALM 0 24 0 13 1011.0 1010.9 0.0
23/06:00pm 28.4 32.6 21.7 67 4.5 NE 2 24 1 13 1010.6 1010.5 0.0
23/05:30pm 28.6 31.5 21.1 64 5.0 NNE 7 28 4 15 1010.2 1010.1 0.0
23/05:00pm 29.1 31.1 20.8 61 5.5 NNE 11 30 6 16 1010.0 1009.9 0.0
23/04:30pm 30.0 32.4 20.8 57 6.1 NNE 9 32 5 17 1009.9 1009.8 0.0
23/04:00pm 30.2 31.0 19.9 54 6.8 NNE 15 32 8 17 1010.0 1009.9 0.0
23/03:30pm 31.4 34.5 21.0 54 7.0 NNE 6 30 3 16 1010.1 1010.0 0.0
23/03:00pm 30.9 31.4 19.3 50 7.6 NNE 15 32 8 17 1010.2 1010.1 0.0
23/02:30pm 31.5 31.4 18.8 46 8.3 NNE 17 33 9 18 1010.5 1010.4 0.0
23/02:00pm 30.9 31.2 19.6 51 7.4 NNE 17 32 9 17 1010.9 1010.8 0.0
23/01:30pm 31.7 29.9 17.9 43 8.9 NE 24 32 13 17 1011.4 1011.2 0.0
23/01:00pm 32.3 30.2 16.2 38 10.1 ENE 22 32 12 17 1011.7 1011.5 0.0
23/12:30pm 32.4 35.4 19.3 46 8.6 NE 2 22 1 12 1012.3 1012.1 0.0
23/12:00pm 32.1 34.5 19.7 48 8.2 E 6 26 3 14 1012.8 1012.6 0.0
23/11:30am 30.9 33.2 19.9 52 7.2 ENE 7 30 4 16 1013.3 1013.1 0.0
23/11:00am 30.9 33.5 20.5 54 6.9 E 7 26 4 14 1013.7 1013.5 0.0
23/10:30am 30.0 33.1 20.3 56 6.4 ENE 4 26 2 14 1014.1 1013.9 0.0
23/10:00am 29.5 32.1 18.3 51 7.2 ESE 2 28 1 15 1014.2 1014.0 0.0
23/09:30am 29.1 32.7 19.7 57 6.1 CALM 0 0 0 0 1014.5 1014.3 0.0
23/09:00am 28.6 32.8 20.9 63 5.1 E 0 0 0 0 1014.6 1014.4 0.0
23/08:30am 26.9 31.6 21.9 74 3.3 CALM 0 20 0 11 1014.7 1014.5 0.0
23/08:00am 25.5 30.2 22.0 81 2.3 CALM 0 20 0 11 1014.5 1014.3 0.0
23/07:30am 24.6 29.0 22.1 86 1.7 ESE 2 24 1 13 1014.4 1014.2 0.0
23/07:00am 23.3 27.9 21.7 91 1.1 CALM 0 7 0 4 1014.0 1013.8 0.0
23/06:30am 22.5 27.2 22.0 97 0.3 CALM 0 0 0 0 1013.7 1013.5 0.0
23/06:00am 21.6 26.1 21.6 100 0.0 SSE 0 0 0 0 1013.3 1013.1 0.0
23/05:30am 21.8 26.3 21.6 99 0.1 CALM 0 0 0 0 1012.9 1012.7 0.0
23/05:00am 22.2 26.8 21.7 97 0.3 CALM 0 0 0 0 1012.5 1012.3 0.0
23/04:30am 22.5 27.0 21.5 94 0.7 CALM 0 0 0 0 1012.3 1012.1 0.0
23/04:00am 22.8 27.6 22.1 96 0.5 SE 0 0 0 0 1012.1 1011.9 0.0
23/03:30am 23.1 28.2 22.6 97 0.3 CALM 0 0 0 0 1012.2 1012.0 0.0
23/03:00am 23.7 28.9 22.9 95 0.5 CALM 0 0 0 0 1012.4 1012.2 0.0
23/02:30am 24.1 29.3 22.9 93 0.8 CALM 0 0 0 0 1012.5 1012.3 0.0
23/02:00am 24.6 29.8 22.8 90 1.2 CALM 0 0 0 0 1012.8 1012.6 0.0
23/01:30am 25.0 30.1 22.7 87 1.6 CALM 0 0 0 0 1013.0 1012.8 0.0
23/01:00am 25.1 30.2 22.6 86 1.7 CALM 0 0 0 0 1013.4 1013.2 0.0
23/12:30am 25.3 30.2 22.4 84 1.9 CALM 0 0 0 0 1013.7 1013.5 0.0
23/12:00am 25.7 30.5 22.2 81 2.3 SE 0 0 0 0 1013.9 1013.7 0.0
 
Date/Time
CST
Temp
°C
App
Temp
°C
Dew
Point
Rel
Hum
%
Delta-T
°C
Wind Press
QNH
hPa
Press
MSL
hPa
Rain
since 9 am
mm
Dir
 
Spd
km/h
Gust
km/h
Spd
kts
Gust
kts
22/11:30pm 26.6 31.4 22.2 77 3.0 CALM 0 0 0 0 1013.9 1013.7 0.0
22/11:00pm 26.8 31.9 22.6 78 2.8 CALM 0 0 0 0 1014.1 1013.9 0.0
22/10:30pm 26.8 31.6 22.2 76 3.1 CALM 0 0 0 0 1014.1 1013.9 0.0
22/10:00pm 27.1 31.7 21.8 73 3.5 CALM 0 0 0 0 1013.9 1013.7 0.0
22/09:30pm 27.1 32.0 22.3 75 3.2 CALM 0 19 0 10 1013.6 1013.4 0.0
22/09:00pm 27.2 32.1 22.4 75 3.2 CALM 0 24 0 13 1013.2 1013.0 0.0
22/08:30pm 27.2 32.4 22.8 77 3.0 CALM 0 0 0 0 1013.0 1012.8 0.0
22/08:00pm 27.2 32.4 22.8 77 3.0 CALM 0 22 0 12 1012.5 1012.3 0.0
22/07:30pm 27.2 32.4 22.8 77 3.0 CALM 0 0 0 0 1012.0 1011.8 0.0
22/07:00pm 27.4 32.3 22.3 73 3.4 CALM 0 4 0 2 1011.6 1011.4 0.0
22/06:30pm 27.7 32.4 22.0 71 3.8 CALM 0 0 0 0 1011.3 1011.1 0.0
22/06:00pm 28.3 31.9 21.3 65 4.7 NE 4 26 2 14 1010.8 1010.7 0.0
22/05:30pm 29.0 32.3 20.7 61 5.5 NE 4 30 2 16 1010.7 1010.6 0.0
22/05:00pm 29.1 32.1 20.8 61 5.5 NE 6 32 3 17 1010.4 1010.3 0.0
22/04:30pm 30.1 32.9 20.9 57 6.1 NNE 7 30 4 16 1010.5 1010.4 0.0
22/04:00pm 30.1 31.3 21.5 60 5.8 NNE 17 35 9 19 1010.6 1010.5 0.0
22/03:30pm 30.6 32.8 21.1 57 6.4 NE 11 33 6 18 1010.8 1010.7 0.0
22/03:00pm 30.5 32.8 21.3 58 6.2 NE 11 33 6 18 1010.9 1010.8 0.0
22/02:30pm 31.4 33.7 21.3 55 6.8 NNE 11 32 6 17 1011.3 1011.1 0.0
22/02:00pm 31.5 33.6 20.1 50 7.5 NE 9 32 5 17 1011.6 1011.4 0.0
22/01:30pm 31.4 33.1 19.4 49 7.9 NE 9 33 5 18 1012.0 1011.8 0.0
22/01:00pm 31.1 32.8 21.0 55 6.8 NNE 13 37 7 20 1012.5 1012.3 0.0
22/12:30pm 31.7 34.3 21.2 53 7.1 NE 9 30 5 16 1013.1 1012.9 0.0
22/12:00pm 31.6 34.6 20.8 52 7.2 NNE 6 28 3 15 1013.5 1013.3 0.0
22/11:30am 31.0 33.2 20.3 53 7.1 NE 9 28 5 15 1014.0 1013.8 0.0
22/11:00am 30.9 33.8 19.9 52 7.2 NNE 4 24 2 13 1014.4 1014.2 0.0
22/10:30am 31.5 35.1 19.8 49 7.7 CALM 0 0 0 0 1014.8 1014.6 0.0
22/10:00am 30.8 33.8 19.2 50 7.6 SE 2 20 1 11 1015.1 1014.9 0.0
22/09:30am 29.7 32.8 19.4 54 6.7 SE 2 22 1 12 1015.3 1015.1 0.0
22/09:00am 28.9 32.8 20.4 60 5.6 CALM 0 0 0 0 1015.3 1015.1 0.0
22/08:30am 28.0 32.8 22.2 70 3.9 CALM 0 0 0 0 1015.2 1015.0 0.0
22/08:00am 26.6 31.5 22.4 78 2.8 CALM 0 0 0 0 1015.1 1014.9 0.0
22/07:30am 25.3 30.2 22.4 84 1.9 CALM 0 0 0 0 1014.7 1014.5 0.0
22/07:00am 24.1 29.2 22.7 92 0.9 CALM 0 0 0 0 1014.1 1013.9 0.0
22/06:30am 23.1 28.4 23.1 100 0.0 CALM 0 0 0 0 1013.6 1013.4 0.0
22/06:00am 23.0 28.3 23.0 100 0.0 CALM 0 0 0 0 1013.4 1013.2 0.0
22/05:30am 23.4 28.6 22.9 97 0.3 CALM 0 0 0 0 1013.1 1012.9 0.0
22/05:00am 23.9 29.3 23.2 96 0.5 CALM 0 0 0 0 1012.8 1012.6 0.0
22/04:30am 24.2 30.0 24.0 99 0.1 CALM 0 0 0 0 1012.7 1012.5 0.0
22/04:00am 24.5 30.3 24.0 97 0.3 CALM 0 0 0 0 1012.4 1012.2 0.0
22/03:30am 24.5 30.3 24.0 97 0.3 CALM 0 0 0 0 1012.6 1012.4 0.0
22/03:00am 24.8 30.6 23.9 95 0.6 CALM 0 0 0 0 1012.8 1012.6 0.0
22/02:30am 24.3 29.4 22.7 91 1.1 CALM 0 0 0 0 1013.1 1012.9 0.0
22/02:00am 25.2 30.7 23.4 90 1.2 CALM 0 0 0 0 1013.5 1013.3 0.0
22/01:30am 25.8 31.2 23.3 86 1.7 CALM 0 0 0 0 1013.7 1013.5 0.0
22/01:00am 26.6 32.2 23.5 83 2.1 CALM 0 0 0 0 1014.0 1013.8 0.0
22/12:30am 26.9 32.6 23.8 83 2.1 CALM 0 0 0 0 1014.5 1014.3 0.0
22/12:00am 27.0 32.7 23.7 82 2.3 CALM 0 0 0 0 1014.6 1014.4 0.0
 
Date/Time
CST
Temp
°C
App
Temp
°C
Dew
Point
Rel
Hum
%
Delta-T
°C
Wind Press
QNH
hPa
Press
MSL
hPa
Rain
since 9 am
mm
Dir
 
Spd
km/h
Gust
km/h
Spd
kts
Gust
kts
21/11:30pm 26.9 32.5 23.6 82 2.3 CALM 0 0 0 0 1014.6 1014.4 0.0
21/11:00pm 26.9 32.6 23.8 83 2.1 CALM 0 0 0 0 1014.8 1014.6 0.0
21/10:30pm 26.9 32.5 23.6 82 2.3 CALM 0 0 0 0 1014.9 1014.7 0.0
21/10:00pm 26.8 32.2 23.3 81 2.4 CALM 0 0 0 0 1014.6 1014.4 0.0
21/09:30pm 27.1 32.7 23.6 81 2.4 CALM 0 6 0 3 1014.2 1014.0 0.0
21/09:00pm 27.0 32.4 23.3 80 2.5 CALM 0 0 0 0 1013.9 1013.7 0.0
21/08:30pm 26.9 32.1 22.9 79 2.7 CALM 0 0 0 0 1013.5 1013.3 0.0
21/08:00pm 27.0 32.2 22.8 78 2.9 CALM 0 0 0 0 1013.1 1012.9 0.0
21/07:30pm 27.2 32.3 22.6 76 3.1 CALM 0 0 0 0 1012.9 1012.7 0.0
21/07:00pm 27.3 32.4 22.7 76 3.1 CALM 0 0 0 0 1012.6 1012.4 0.0
21/06:30pm 27.6 32.6 22.5 74 3.5 CALM 0 0 0 0 1012.3 1012.1 0.0
21/06:00pm 28.2 33.0 22.2 70 4.1 CALM 0 4 0 2 1012.1 1011.9 0.0
21/05:30pm 28.8 32.8 22.1 67 4.5 NNE 4 24 2 13 1012.0 1011.8 0.0
21/05:00pm 29.7 33.1 21.6 61 5.4 NNE 6 30 3 16 1011.7 1011.5 0.0
21/04:30pm 30.7 34.2 21.8 59 6.0 NNE 6 30 3 16 1011.4 1011.2 0.0
21/04:00pm 30.3 31.5 21.4 59 6.0 NE 17 33 9 18 1011.5 1011.3 0.0
21/03:30pm 30.7 34.7 20.6 54 6.7 CALM 0 - 0 - - 1011.5 -
21/03:00pm 31.3 31.7 20.6 53 7.1 NE 19 35 10 19 1011.9 1011.7 0.0
21/02:30pm 31.5 32.4 20.1 50 7.5 NE 15 32 8 17 1012.2 1012.0 0.0
21/02:00pm 31.4 33.0 19.1 48 8.0 NE 9 30 5 16 1012.7 1012.5 0.0
21/01:30pm 31.7 34.6 20.6 51 7.4 ENE 6 28 3 15 1013.1 1012.9 0.0
21/01:00pm 31.4 33.7 20.7 53 7.1 NE 9 32 5 17 1013.6 1013.4 0.0
21/12:30pm 32.0 34.2 19.3 47 8.3 NE 6 26 3 14 1014.2 1014.0 0.0
21/12:00pm 31.8 34.4 18.4 45 8.7 NE 2 26 1 14 1014.7 1014.5 0.0
21/11:30am 30.6 32.1 19.0 50 7.5 NE 9 30 5 16 1015.1 1014.9 0.0
21/11:00am 31.1 33.8 19.4 49 7.7 ENE 4 28 2 15 1015.2 1015.0 0.0
21/10:30am 30.7 33.5 18.8 49 7.7 NE 2 22 1 12 1015.4 1015.2 0.0
21/10:00am 30.2 32.5 17.6 46 8.0 E 2 24 1 13 1015.6 1015.4 0.0
21/09:30am 28.8 32.4 20.5 61 5.5 ENE 2 24 1 13 1015.6 1015.4 0.0
21/09:00am 28.1 31.5 20.1 62 5.2 ENE 2 22 1 12 1015.6 1015.4 0.0
21/08:30am 27.6 31.8 20.9 67 4.4 CALM 0 15 0 8 1015.5 1015.3 0.0
21/08:00am 26.6 30.5 20.4 69 4.1 CALM 0 0 0 0 1015.1 1014.9 0.0
21/07:30am 25.0 29.3 21.1 79 2.6 CALM 0 0 0 0 1014.8 1014.6 0.0
21/07:00am 23.1 27.6 21.5 91 1.1 CALM 0 0 0 0 1014.5 1014.3 0.0
21/06:30am 21.6 26.1 21.6 100 0.0 CALM 0 0 0 0 1014.2 1014.0 0.0
21/06:00am 21.2 25.5 21.2 100 0.0 CALM 0 0 0 0 1013.9 1013.7 0.0
21/05:30am 21.1 25.2 20.8 98 0.2 CALM 0 0 0 0 1013.6 1013.4 0.0
21/05:00am 21.9 26.2 21.1 95 0.5 CALM 0 0 0 0 1013.4 1013.2 0.0
21/04:30am 21.7 26.3 21.7 100 0.0 CALM 0 0 0 0 1013.3 1013.1 0.0
21/04:00am 21.9 26.6 21.9 100 0.0 CALM 0 0 0 0 1013.7 1013.5 0.0
21/03:30am 22.1 26.5 21.4 96 0.5 CALM 0 0 0 0 1013.5 1013.3 0.0
21/03:00am 22.7 27.0 21.2 91 1.0 CALM 0 0 0 0 1013.5 1013.3 0.0
21/02:30am 23.2 27.5 21.1 88 1.4 CALM 0 0 0 0 1013.6 1013.4 0.0
21/02:00am 23.7 28.1 21.4 87 1.5 CALM 0 0 0 0 1013.8 1013.6 0.0
21/01:30am 24.6 29.3 21.9 85 1.8 CALM 0 0 0 0 1014.0 1013.8 0.0
21/01:00am 24.8 29.7 22.3 86 1.7 CALM 0 0 0 0 1014.0 1013.8 0.0
21/12:30am 25.3 30.0 22.0 82 2.2 CALM 0 0 0 0 1014.3 1014.1 0.0
21/12:00am 26.2 31.0 22.1 78 2.7 CALM 0 0 0 0 1014.4 1014.2 0.0
 
Date/Time
CST
Temp
°C
App
Temp
°C
Dew
Point
Rel
Hum
%
Delta-T
°C
Wind Press
QNH
hPa
Press
MSL
hPa
Rain
since 9 am
mm
Dir
 
Spd
km/h
Gust
km/h
Spd
kts
Gust
kts
20/11:30pm 26.6 31.4 22.2 77 3.0 CALM 0 0 0 0 1014.6 1014.4 0.0
20/11:00pm 27.0 31.8 22.2 75 3.2 CALM 0 0 0 0 1014.6 1014.4 0.0
20/10:30pm 27.3 32.3 22.5 75 3.2 CALM 0 0 0 0 1014.5 1014.3 0.0
20/10:00pm 27.2 32.3 22.6 76 3.1 CALM 0 0 0 0 1014.2 1014.0 0.0
20/09:30pm 27.3 32.3 22.5 75 3.2 CALM 0 24 0 13 1013.9 1013.7 0.0
20/09:00pm 27.4 32.5 22.6 75 3.3 CALM 0 22 0 12 1013.4 1013.2 0.0
20/08:30pm 27.3 31.6 22.0 73 3.6 ENE 2 28 1 15 1013.0 1012.8 0.0

Other Formats:

Comma delimited format used in spreadsheet applications
http://www.bom.gov.au/fwo/IDD60801/IDD60801.95142.axf

JavaScript Object Notation format (JSON) in row-major order
http://www.bom.gov.au/fwo/IDD60801/IDD60801.95142.json